Check out our new PWSWeather beta!
PWSweather.com
Personal Weather Stations
Station Observations
OINOFYTA
Oinofyta Greece, OinofytaGR 320 11

Oinofyta GreeceOinofytaGR 320 11

Lat: 38.3080648, Lon: 23.6391172

Elevation: 354

Station Type: ProWeatherStation 1080

https://oinofytaweather.gr/

High Low Average
Temperature 46.0°F7.8°C 31.6°F-0.2°C 38.2°F3.4°C
Dew Point 36.3°F2.4°C 29.6°F-1.3°C 33.1°F0.6°C
Winds 3.7 mph 6.0 kmh 0.1 mph 0.2 kmh 1.0 mph SW1.6 kmh SW
Wind Gusts 10.7 mph17.2 kmh 1.6 mph2.6 kmh 5.0 mph8.0 kmh
Humidity 94% 64% 82%
Pressure 30.40 in1029.5 mb 30.25 in1024.4 mb -
Precipitation 0.01 in0.3 mm - -
Hour Temp Dew Point Humidity Winds Wind Gusts Pressure Precip Precip Rate Daily Precip Total
12:00 AM 35.2°F1.8°C 29.7°F-1.3°C 80% 1.0 mph WSW1.6 kmh WSW 3.8 mph6.1 kmh 30.39 in1029.1 mb 0.00 in0.0 mm 0.00 in0.0 mm 0.00 in0.0 mm
12:05 AM 35.4°F1.9°C 29.6°F-1.3°C 79% 1.3 mph WSW2.1 kmh WSW 3.8 mph6.1 kmh 30.38 in1028.8 mb 0.00 in0.0 mm 0.00 in0.0 mm 0.00 in0.0 mm
12:10 AM 35.4°F1.9°C 29.6°F-1.3°C 79% 1.1 mph SW1.8 kmh SW 3.8 mph6.1 kmh 30.38 in1028.8 mb 0.00 in0.0 mm 0.00 in0.0 mm 0.00 in0.0 mm
12:15 AM 35.6°F2.0°C 29.7°F-1.3°C 79% 0.7 mph SW1.1 kmh SW 3.1 mph5.0 kmh 30.38 in1028.8 mb 0.00 in0.0 mm 0.00 in0.0 mm 0.00 in0.0 mm
12:20 AM 35.6°F2.0°C 29.7°F-1.3°C 79% 1.0 mph SW1.6 kmh SW 3.1 mph5.0 kmh 30.38 in1028.8 mb 0.00 in0.0 mm 0.00 in0.0 mm 0.00 in0.0 mm
12:25 AM 35.6°F2.0°C 29.7°F-1.3°C 79% 1.2 mph SW1.9 kmh SW 3.1 mph5.0 kmh 30.38 in1028.8 mb 0.00 in0.0 mm 0.00 in0.0 mm 0.00 in0.0 mm
12:30 AM 35.6°F2.0°C 30.1°F-1.1°C 80% 1.0 mph SW1.6 kmh SW 3.1 mph5.0 kmh 30.38 in1028.8 mb 0.00 in0.0 mm 0.00 in0.0 mm 0.00 in0.0 mm
12:35 AM 35.6°F2.0°C 29.7°F-1.3°C 79% 0.9 mph SW1.4 kmh SW 3.1 mph5.0 kmh 30.38 in1028.8 mb 0.00 in0.0 mm 0.00 in0.0 mm 0.00 in0.0 mm
12:40 AM 35.8°F2.1°C 29.9°F-1.2°C 79% 1.1 mph SW1.8 kmh SW 3.1 mph5.0 kmh 30.38 in1028.8 mb 0.00 in0.0 mm 0.00 in0.0 mm 0.00 in0.0 mm
12:45 AM 35.8°F2.1°C 29.9°F-1.2°C 79% 0.9 mph SW1.4 kmh SW 3.8 mph6.1 kmh 30.39 in1029.1 mb 0.00 in0.0 mm 0.00 in0.0 mm 0.00 in0.0 mm
12:50 AM 35.8°F2.1°C 29.9°F-1.2°C 79% 1.1 mph WSW1.8 kmh WSW 3.8 mph6.1 kmh 30.39 in1029.1 mb 0.00 in0.0 mm 0.00 in0.0 mm 0.00 in0.0 mm
12:55 AM 35.8°F2.1°C 30.2°F-1.0°C 80% 1.7 mph SW2.7 kmh SW 3.8 mph6.1 kmh 30.39 in1029.1 mb 0.00 in0.0 mm 0.00 in0.0 mm 0.00 in0.0 mm
01:00 AM 35.6°F2.0°C 30.1°F-1.1°C 80% 1.6 mph SW2.6 kmh SW 4.5 mph7.2 kmh 30.40 in1029.5 mb 0.00 in0.0 mm 0.00 in0.0 mm 0.00 in0.0 mm
01:05 AM 35.6°F2.0°C 30.4°F-0.9°C 81% 1.6 mph SW2.6 kmh SW 4.5 mph7.2 kmh 30.40 in1029.5 mb 0.00 in0.0 mm 0.00 in0.0 mm 0.00 in0.0 mm
01:10 AM 35.4°F1.9°C 30.5°F-0.8°C 82% 1.2 mph SW1.9 kmh SW 3.1 mph5.0 kmh 30.40 in1029.5 mb 0.00 in0.0 mm 0.00 in0.0 mm 0.00 in0.0 mm
01:15 AM 35.4°F1.9°C 30.8°F-0.7°C 83% 0.9 mph SW1.4 kmh SW 3.1 mph5.0 kmh 30.40 in1029.5 mb 0.00 in0.0 mm 0.00 in0.0 mm 0.00 in0.0 mm
01:20 AM 35.4°F1.9°C 30.8°F-0.7°C 83% 0.9 mph SW1.4 kmh SW 3.1 mph5.0 kmh 30.40 in1029.5 mb 0.00 in0.0 mm 0.00 in0.0 mm 0.00 in0.0 mm
01:25 AM 35.4°F1.9°C 30.8°F-0.7°C 83% 1.3 mph SW2.1 kmh SW 3.1 mph5.0 kmh 30.40 in1029.5 mb 0.00 in0.0 mm 0.00 in0.0 mm 0.00 in0.0 mm
01:30 AM 35.2°F1.8°C 30.9°F-0.6°C 84% 1.3 mph SSW2.1 kmh SSW 3.1 mph5.0 kmh 30.40 in1029.5 mb 0.00 in0.0 mm 0.00 in0.0 mm 0.00 in0.0 mm
01:35 AM 35.4°F1.9°C 31.1°F-0.5°C 84% 1.0 mph SSW1.6 kmh SSW 3.1 mph5.0 kmh 30.40 in1029.5 mb 0.00 in0.0 mm 0.00 in0.0 mm 0.00 in0.0 mm
01:40 AM 35.4°F1.9°C 31.1°F-0.5°C 84% 0.8 mph SW1.3 kmh SW 3.1 mph5.0 kmh 30.40 in1029.5 mb 0.00 in0.0 mm 0.00 in0.0 mm 0.00 in0.0 mm
01:45 AM 35.4°F1.9°C 31.1°F-0.5°C 84% 0.3 mph SW0.5 kmh SW 2.2 mph3.5 kmh 30.40 in1029.5 mb 0.00 in0.0 mm 0.00 in0.0 mm 0.00 in0.0 mm
01:50 AM 35.4°F1.9°C 31.4°F-0.3°C 85% 0.1 mph SW0.2 kmh SW 1.6 mph2.6 kmh 30.39 in1029.1 mb 0.00 in0.0 mm 0.00 in0.0 mm 0.00 in0.0 mm
01:55 AM 35.4°F1.9°C 31.1°F-0.5°C 84% 0.5 mph SW0.8 kmh SW 2.2 mph3.5 kmh 30.39 in1029.1 mb 0.00 in0.0 mm 0.00 in0.0 mm 0.00 in0.0 mm
02:00 AM 35.6°F2.0°C 31.0°F-0.6°C 83% 1.2 mph SW1.9 kmh SW 3.1 mph5.0 kmh 30.39 in1029.1 mb 0.00 in0.0 mm 0.00 in0.0 mm 0.00 in0.0 mm
02:05 AM 35.6°F2.0°C 31.0°F-0.6°C 83% 1.5 mph SW2.4 kmh SW 3.1 mph5.0 kmh 30.39 in1029.1 mb 0.00 in0.0 mm 0.00 in0.0 mm 0.00 in0.0 mm
02:10 AM 35.6°F2.0°C 31.3°F-0.4°C 84% 1.2 mph SSW1.9 kmh SSW 3.1 mph5.0 kmh 30.39 in1029.1 mb 0.00 in0.0 mm 0.00 in0.0 mm 0.00 in0.0 mm
02:15 AM 35.6°F2.0°C 31.3°F-0.4°C 84% 0.9 mph SW1.4 kmh SW 3.1 mph5.0 kmh 30.40 in1029.5 mb 0.00 in0.0 mm 0.00 in0.0 mm 0.00 in0.0 mm
02:20 AM 35.8°F2.1°C 31.4°F-0.3°C 84% 0.5 mph SW0.8 kmh SW 2.2 mph3.5 kmh 30.40 in1029.5 mb 0.00 in0.0 mm 0.00 in0.0 mm 0.00 in0.0 mm
02:25 AM 35.8°F2.1°C 31.4°F-0.3°C 84% 0.8 mph SW1.3 kmh SW 3.1 mph5.0 kmh 30.40 in1029.5 mb 0.00 in0.0 mm 0.00 in0.0 mm 0.00 in0.0 mm
02:30 AM 35.6°F2.0°C 31.5°F-0.3°C 85% 1.6 mph SW2.6 kmh SW 3.8 mph6.1 kmh 30.40 in1029.5 mb 0.00 in0.0 mm 0.00 in0.0 mm 0.00 in0.0 mm
02:35 AM 35.6°F2.0°C 31.5°F-0.3°C 85% 1.8 mph SW2.9 kmh SW 4.5 mph7.2 kmh 30.40 in1029.5 mb 0.00 in0.0 mm 0.00 in0.0 mm 0.00 in0.0 mm
02:40 AM 35.6°F2.0°C 31.5°F-0.3°C 85% 1.4 mph SW2.3 kmh SW 4.5 mph7.2 kmh 30.40 in1029.5 mb 0.00 in0.0 mm 0.00 in0.0 mm 0.00 in0.0 mm
02:45 AM 35.6°F2.0°C 31.5°F-0.3°C 85% 1.2 mph SW1.9 kmh SW 3.8 mph6.1 kmh 30.40 in1029.5 mb 0.00 in0.0 mm 0.00 in0.0 mm 0.00 in0.0 mm
02:50 AM 35.8°F2.1°C 31.4°F-0.3°C 84% 1.2 mph WSW1.9 kmh WSW 3.8 mph6.1 kmh 30.40 in1029.5 mb 0.00 in0.0 mm 0.00 in0.0 mm 0.00 in0.0 mm
02:55 AM 35.8°F2.1°C 31.4°F-0.3°C 84% 1.3 mph W2.1 kmh W 4.5 mph7.2 kmh 30.39 in1029.1 mb 0.00 in0.0 mm 0.00 in0.0 mm 0.00 in0.0 mm
03:00 AM 35.8°F2.1°C 31.4°F-0.3°C 84% 1.4 mph W2.3 kmh W 4.5 mph7.2 kmh 30.39 in1029.1 mb 0.00 in0.0 mm 0.00 in0.0 mm 0.00 in0.0 mm
03:05 AM 35.8°F2.1°C 31.7°F-0.2°C 85% 1.4 mph W2.3 kmh W 4.5 mph7.2 kmh 30.39 in1029.1 mb 0.00 in0.0 mm 0.00 in0.0 mm 0.00 in0.0 mm
03:10 AM 35.8°F2.1°C 31.7°F-0.2°C 85% 1.1 mph W1.8 kmh W 3.8 mph6.1 kmh 30.38 in1028.8 mb 0.00 in0.0 mm 0.00 in0.0 mm 0.00 in0.0 mm
03:15 AM 35.8°F2.1°C 32.0°F0.0°C 86% 0.8 mph WSW1.3 kmh WSW 3.8 mph6.1 kmh 30.39 in1029.1 mb 0.00 in0.0 mm 0.00 in0.0 mm 0.00 in0.0 mm
03:20 AM 35.6°F2.0°C 32.1°F0.1°C 87% 0.8 mph WSW1.3 kmh WSW 3.8 mph6.1 kmh 30.39 in1029.1 mb 0.00 in0.0 mm 0.00 in0.0 mm 0.00 in0.0 mm
03:25 AM 35.6°F2.0°C 32.1°F0.1°C 87% 0.7 mph SW1.1 kmh SW 3.8 mph6.1 kmh 30.39 in1029.1 mb 0.00 in0.0 mm 0.00 in0.0 mm 0.00 in0.0 mm
03:30 AM 35.6°F2.0°C 32.4°F0.2°C 88% 0.8 mph SW1.3 kmh SW 3.1 mph5.0 kmh 30.39 in1029.1 mb 0.00 in0.0 mm 0.00 in0.0 mm 0.00 in0.0 mm
03:35 AM 35.4°F1.9°C 32.2°F0.1°C 88% 1.3 mph SSW2.1 kmh SSW 3.8 mph6.1 kmh 30.39 in1029.1 mb 0.00 in0.0 mm 0.00 in0.0 mm 0.00 in0.0 mm
03:40 AM 35.2°F1.8°C 32.3°F0.2°C 89% 1.6 mph S2.6 kmh S 3.8 mph6.1 kmh 30.39 in1029.1 mb 0.01 in0.3 mm 0.12 in3.0 mm 0.01 in0.3 mm
03:45 AM 35.2°F1.8°C 32.6°F0.3°C 90% 1.4 mph SW2.3 kmh SW 3.1 mph5.0 kmh 30.38 in1028.8 mb 0.01 in0.3 mm 0.00 in0.0 mm 0.01 in0.3 mm
03:50 AM 35.2°F1.8°C 32.9°F0.5°C 91% 1.3 mph SW2.1 kmh SW 4.5 mph7.2 kmh 30.38 in1028.8 mb 0.01 in0.3 mm 0.00 in0.0 mm 0.01 in0.3 mm
03:55 AM 35.2°F1.8°C 32.9°F0.5°C 91% 1.2 mph SW1.9 kmh SW 4.5 mph7.2 kmh 30.38 in1028.8 mb 0.01 in0.3 mm 0.00 in0.0 mm 0.01 in0.3 mm
04:00 AM 35.2°F1.8°C 32.9°F0.5°C 91% 1.0 mph SW1.6 kmh SW 3.1 mph5.0 kmh 30.38 in1028.8 mb 0.01 in0.3 mm 0.00 in0.0 mm 0.01 in0.3 mm
04:05 AM 35.2°F1.8°C 32.9°F0.5°C 91% 0.6 mph SW1.0 kmh SW 2.2 mph3.5 kmh 30.37 in1028.4 mb 0.01 in0.3 mm 0.00 in0.0 mm 0.01 in0.3 mm
04:10 AM 35.2°F1.8°C 32.9°F0.5°C 91% 0.3 mph SW0.5 kmh SW 2.2 mph3.5 kmh 30.37 in1028.4 mb 0.01 in0.3 mm 0.00 in0.0 mm 0.01 in0.3 mm
04:15 AM 35.2°F1.8°C 32.9°F0.5°C 91% 0.3 mph SW0.5 kmh SW 2.2 mph3.5 kmh 30.37 in1028.4 mb 0.01 in0.3 mm 0.00 in0.0 mm 0.01 in0.3 mm
04:20 AM 35.4°F1.9°C 33.3°F0.7°C 92% 0.3 mph SW0.5 kmh SW 2.2 mph3.5 kmh 30.37 in1028.4 mb 0.01 in0.3 mm 0.00 in0.0 mm 0.01 in0.3 mm
04:25 AM 35.4°F1.9°C 33.3°F0.7°C 92% 0.3 mph SSW0.5 kmh SSW 2.2 mph3.5 kmh 30.37 in1028.4 mb 0.01 in0.3 mm 0.00 in0.0 mm 0.01 in0.3 mm
04:30 AM 35.4°F1.9°C 33.3°F0.7°C 92% 0.6 mph SSW1.0 kmh SSW 2.2 mph3.5 kmh 30.37 in1028.4 mb 0.01 in0.3 mm 0.00 in0.0 mm 0.01 in0.3 mm
04:35 AM 35.4°F1.9°C 33.3°F0.7°C 92% 0.8 mph SSW1.3 kmh SSW 2.2 mph3.5 kmh 30.37 in1028.4 mb 0.01 in0.3 mm 0.00 in0.0 mm 0.01 in0.3 mm
04:40 AM 35.4°F1.9°C 33.6°F0.9°C 93% 0.6 mph SW1.0 kmh SW 3.1 mph5.0 kmh 30.37 in1028.4 mb 0.00 in0.0 mm 0.00 in0.0 mm 0.01 in0.3 mm
04:45 AM 35.6°F2.0°C 33.8°F1.0°C 93% 0.5 mph SW0.8 kmh SW 3.1 mph5.0 kmh 30.36 in1028.1 mb 0.00 in0.0 mm 0.00 in0.0 mm 0.01 in0.3 mm
04:50 AM 35.4°F1.9°C 33.6°F0.9°C 93% 0.4 mph SW0.6 kmh SW 3.1 mph5.0 kmh 30.37 in1028.4 mb 0.00 in0.0 mm 0.00 in0.0 mm 0.01 in0.3 mm
04:55 AM 35.6°F2.0°C 33.8°F1.0°C 93% 0.4 mph SW0.6 kmh SW 3.1 mph5.0 kmh 30.36 in1028.1 mb 0.00 in0.0 mm 0.00 in0.0 mm 0.01 in0.3 mm
05:00 AM 35.6°F2.0°C 33.8°F1.0°C 93% 0.3 mph SW0.5 kmh SW 3.1 mph5.0 kmh 30.36 in1028.1 mb 0.00 in0.0 mm 0.00 in0.0 mm 0.01 in0.3 mm
05:05 AM 35.6°F2.0°C 33.8°F1.0°C 93% 0.1 mph SW0.2 kmh SW 2.2 mph3.5 kmh 30.36 in1028.1 mb 0.00 in0.0 mm 0.00 in0.0 mm 0.01 in0.3 mm
05:10 AM 35.8°F2.1°C 34.0°F1.1°C 93% 0.2 mph SW0.3 kmh SW 3.1 mph5.0 kmh 30.35 in1027.8 mb 0.00 in0.0 mm 0.00 in0.0 mm 0.01 in0.3 mm
05:15 AM 35.8°F2.1°C 34.2°F1.2°C 94% 0.6 mph SW1.0 kmh SW 3.1 mph5.0 kmh 30.36 in1028.1 mb 0.00 in0.0 mm 0.00 in0.0 mm 0.01 in0.3 mm
05:20 AM 36.0°F2.2°C 34.4°F1.3°C 94% 1.0 mph SW1.6 kmh SW 3.8 mph6.1 kmh 30.35 in1027.8 mb 0.00 in0.0 mm 0.00 in0.0 mm 0.01 in0.3 mm
05:25 AM 36.0°F2.2°C 34.4°F1.3°C 94% 0.5 mph WSW0.8 kmh WSW 3.8 mph6.1 kmh 30.35 in1027.8 mb 0.00 in0.0 mm 0.00 in0.0 mm 0.01 in0.3 mm
05:30 AM 36.0°F2.2°C 34.4°F1.3°C 94% 0.3 mph WSW0.5 kmh WSW 2.2 mph3.5 kmh 30.35 in1027.8 mb 0.00 in0.0 mm 0.00 in0.0 mm 0.01 in0.3 mm
05:35 AM 36.0°F2.2°C 34.4°F1.3°C 94% 0.8 mph WSW1.3 kmh WSW 3.1 mph5.0 kmh 30.35 in1027.8 mb 0.00 in0.0 mm 0.00 in0.0 mm 0.01 in0.3 mm
05:40 AM 36.1°F2.3°C 34.3°F1.3°C 93% 1.2 mph SW1.9 kmh SW 3.1 mph5.0 kmh 30.35 in1027.8 mb 0.00 in0.0 mm 0.00 in0.0 mm 0.01 in0.3 mm
05:45 AM 36.3°F2.4°C 34.5°F1.4°C 93% 1.2 mph WSW1.9 kmh WSW 4.5 mph7.2 kmh 30.35 in1027.8 mb 0.00 in0.0 mm 0.00 in0.0 mm 0.01 in0.3 mm
05:50 AM 36.3°F2.4°C 34.5°F1.4°C 93% 1.1 mph WSW1.8 kmh WSW 4.5 mph7.2 kmh 30.35 in1027.8 mb 0.00 in0.0 mm 0.00 in0.0 mm 0.01 in0.3 mm
05:55 AM 36.3°F2.4°C 34.5°F1.4°C 93% 1.1 mph SW1.8 kmh SW 3.8 mph6.1 kmh 30.35 in1027.8 mb 0.00 in0.0 mm 0.00 in0.0 mm 0.01 in0.3 mm
06:00 AM 36.3°F2.4°C 34.5°F1.4°C 93% 1.3 mph SW2.1 kmh SW 4.5 mph7.2 kmh 30.35 in1027.8 mb 0.00 in0.0 mm 0.00 in0.0 mm 0.01 in0.3 mm
06:05 AM 36.3°F2.4°C 34.5°F1.4°C 93% 1.2 mph SW1.9 kmh SW 4.5 mph7.2 kmh 30.35 in1027.8 mb 0.00 in0.0 mm 0.00 in0.0 mm 0.01 in0.3 mm
06:10 AM 36.3°F2.4°C 34.8°F1.6°C 94% 0.9 mph SW1.4 kmh SW 3.1 mph5.0 kmh 30.35 in1027.8 mb 0.00 in0.0 mm 0.00 in0.0 mm 0.01 in0.3 mm
06:15 AM 36.3°F2.4°C 34.5°F1.4°C 93% 0.9 mph SW1.4 kmh SW 3.8 mph6.1 kmh 30.35 in1027.8 mb 0.00 in0.0 mm 0.00 in0.0 mm 0.01 in0.3 mm
06:20 AM 36.5°F2.5°C 34.7°F1.5°C 93% 1.1 mph WSW1.8 kmh WSW 4.5 mph7.2 kmh 30.34 in1027.4 mb 0.00 in0.0 mm 0.00 in0.0 mm 0.01 in0.3 mm
06:25 AM 36.5°F2.5°C 34.4°F1.3°C 92% 1.4 mph SW2.3 kmh SW 4.5 mph7.2 kmh 30.34 in1027.4 mb 0.00 in0.0 mm 0.00 in0.0 mm 0.01 in0.3 mm
06:30 AM 36.5°F2.5°C 34.1°F1.2°C 91% 1.1 mph SW1.8 kmh SW 3.8 mph6.1 kmh 30.34 in1027.4 mb 0.00 in0.0 mm 0.00 in0.0 mm 0.01 in0.3 mm
06:35 AM 36.5°F2.5°C 34.1°F1.2°C 91% 0.8 mph SW1.3 kmh SW 3.8 mph6.1 kmh 30.34 in1027.4 mb 0.00 in0.0 mm 0.00 in0.0 mm 0.01 in0.3 mm
06:40 AM 36.7°F2.6°C 34.3°F1.3°C 91% 1.2 mph SW1.9 kmh SW 4.5 mph7.2 kmh 30.33 in1027.1 mb 0.00 in0.0 mm 0.00 in0.0 mm 0.01 in0.3 mm
06:45 AM 36.7°F2.6°C 34.0°F1.1°C 90% 1.2 mph SW1.9 kmh SW 4.5 mph7.2 kmh 30.33 in1027.1 mb 0.00 in0.0 mm 0.00 in0.0 mm 0.01 in0.3 mm
06:50 AM 36.7°F2.6°C 34.0°F1.1°C 90% 0.6 mph SSW1.0 kmh SSW 3.1 mph5.0 kmh 30.34 in1027.4 mb 0.00 in0.0 mm 0.00 in0.0 mm 0.01 in0.3 mm
06:55 AM 36.7°F2.6°C 34.0°F1.1°C 90% 0.6 mph S1.0 kmh S 2.2 mph3.5 kmh 30.34 in1027.4 mb 0.00 in0.0 mm 0.00 in0.0 mm 0.01 in0.3 mm
07:00 AM 36.9°F2.7°C 33.9°F1.1°C 89% 1.1 mph SSW1.8 kmh SSW 3.1 mph5.0 kmh 30.34 in1027.4 mb 0.00 in0.0 mm 0.00 in0.0 mm 0.01 in0.3 mm
07:05 AM 36.9°F2.7°C 33.6°F0.9°C 88% 1.5 mph SSW2.4 kmh SSW 3.1 mph5.0 kmh 30.34 in1027.4 mb 0.00 in0.0 mm 0.00 in0.0 mm 0.01 in0.3 mm
07:10 AM 36.9°F2.7°C 33.4°F0.8°C 87% 1.8 mph SW2.9 kmh SW 3.8 mph6.1 kmh 30.35 in1027.8 mb 0.00 in0.0 mm 0.00 in0.0 mm 0.01 in0.3 mm
07:15 AM 36.9°F2.7°C 33.4°F0.8°C 87% 2.0 mph SSW3.2 kmh SSW 4.5 mph7.2 kmh 30.34 in1027.4 mb 0.00 in0.0 mm 0.00 in0.0 mm 0.01 in0.3 mm
07:20 AM 36.9°F2.7°C 33.4°F0.8°C 87% 2.1 mph SSW3.4 kmh SSW 5.4 mph8.7 kmh 30.34 in1027.4 mb 0.00 in0.0 mm 0.00 in0.0 mm 0.01 in0.3 mm
07:25 AM 37.0°F2.8°C 33.3°F0.7°C 86% 2.2 mph SSW3.5 kmh SSW 5.4 mph8.7 kmh 30.34 in1027.4 mb 0.00 in0.0 mm 0.00 in0.0 mm 0.01 in0.3 mm
07:30 AM 37.0°F2.8°C 33.3°F0.7°C 86% 1.8 mph SW2.9 kmh SW 5.4 mph8.7 kmh 30.34 in1027.4 mb 0.00 in0.0 mm 0.00 in0.0 mm 0.01 in0.3 mm
07:35 AM 37.0°F2.8°C 33.3°F0.7°C 86% 1.8 mph SW2.9 kmh SW 5.4 mph8.7 kmh 30.34 in1027.4 mb 0.00 in0.0 mm 0.00 in0.0 mm 0.01 in0.3 mm
07:40 AM 37.2°F2.9°C 33.1°F0.6°C 85% 1.8 mph SW2.9 kmh SW 6.0 mph9.7 kmh 30.34 in1027.4 mb 0.00 in0.0 mm 0.00 in0.0 mm 0.01 in0.3 mm
07:45 AM 37.2°F2.9°C 33.1°F0.6°C 85% 1.5 mph SW2.4 kmh SW 6.0 mph9.7 kmh 30.33 in1027.1 mb 0.00 in0.0 mm 0.00 in0.0 mm 0.01 in0.3 mm
07:50 AM 37.2°F2.9°C 32.8°F0.4°C 84% 1.5 mph SW2.4 kmh SW 3.8 mph6.1 kmh 30.33 in1027.1 mb 0.00 in0.0 mm 0.00 in0.0 mm 0.01 in0.3 mm
07:55 AM 37.2°F2.9°C 33.1°F0.6°C 85% 1.1 mph SW1.8 kmh SW 3.8 mph6.1 kmh 30.34 in1027.4 mb 0.00 in0.0 mm 0.00 in0.0 mm 0.01 in0.3 mm
08:00 AM 37.2°F2.9°C 33.1°F0.6°C 85% 1.1 mph SW1.8 kmh SW 5.4 mph8.7 kmh 30.34 in1027.4 mb 0.00 in0.0 mm 0.00 in0.0 mm 0.01 in0.3 mm
08:05 AM 37.0°F2.8°C 32.7°F0.4°C 84% 1.6 mph WSW2.6 kmh WSW 5.4 mph8.7 kmh 30.34 in1027.4 mb 0.00 in0.0 mm 0.00 in0.0 mm 0.01 in0.3 mm
08:10 AM 37.0°F2.8°C 32.7°F0.4°C 84% 1.6 mph W2.6 kmh W 6.0 mph9.7 kmh 30.34 in1027.4 mb 0.00 in0.0 mm 0.00 in0.0 mm 0.01 in0.3 mm
08:15 AM 37.2°F2.9°C 32.5°F0.3°C 83% 1.6 mph WSW2.6 kmh WSW 6.0 mph9.7 kmh 30.34 in1027.4 mb 0.00 in0.0 mm 0.00 in0.0 mm 0.01 in0.3 mm
08:20 AM 37.0°F2.8°C 32.7°F0.4°C 84% 1.9 mph WSW3.1 kmh WSW 6.0 mph9.7 kmh 30.34 in1027.4 mb 0.00 in0.0 mm 0.00 in0.0 mm 0.01 in0.3 mm
08:25 AM 37.0°F2.8°C 32.4°F0.2°C 83% 2.1 mph WSW3.4 kmh WSW 6.9 mph11.1 kmh 30.35 in1027.8 mb 0.00 in0.0 mm 0.00 in0.0 mm 0.01 in0.3 mm
08:30 AM 37.0°F2.8°C 32.1°F0.1°C 82% 2.5 mph W4.0 kmh W 6.9 mph11.1 kmh 30.34 in1027.4 mb 0.00 in0.0 mm 0.00 in0.0 mm 0.01 in0.3 mm
08:35 AM 37.0°F2.8°C 32.1°F0.1°C 82% 2.6 mph WSW4.2 kmh WSW 6.9 mph11.1 kmh 30.34 in1027.4 mb 0.00 in0.0 mm 0.00 in0.0 mm 0.01 in0.3 mm
08:40 AM 37.2°F2.9°C 32.2°F0.1°C 82% 2.1 mph W3.4 kmh W 6.9 mph11.1 kmh 30.33 in1027.1 mb 0.00 in0.0 mm 0.00 in0.0 mm 0.01 in0.3 mm
08:45 AM 37.0°F2.8°C 32.4°F0.2°C 83% 1.4 mph WSW2.3 kmh WSW 4.5 mph7.2 kmh 30.34 in1027.4 mb 0.00 in0.0 mm 0.00 in0.0 mm 0.01 in0.3 mm
08:50 AM 37.0°F2.8°C 32.4°F0.2°C 83% 1.2 mph SW1.9 kmh SW 5.4 mph8.7 kmh 30.33 in1027.1 mb 0.00 in0.0 mm 0.00 in0.0 mm 0.01 in0.3 mm
08:55 AM 37.2°F2.9°C 32.5°F0.3°C 83% 1.3 mph SW2.1 kmh SW 5.4 mph8.7 kmh 30.33 in1027.1 mb 0.00 in0.0 mm 0.00 in0.0 mm 0.01 in0.3 mm
09:00 AM 37.2°F2.9°C 32.5°F0.3°C 83% 1.1 mph SW1.8 kmh SW 5.4 mph8.7 kmh 30.33 in1027.1 mb 0.00 in0.0 mm 0.00 in0.0 mm 0.01 in0.3 mm
09:05 AM 37.2°F2.9°C 32.2°F0.1°C 82% 1.2 mph SW1.9 kmh SW 4.5 mph7.2 kmh 30.34 in1027.4 mb 0.00 in0.0 mm 0.00 in0.0 mm 0.01 in0.3 mm
09:10 AM 37.4°F3.0°C 32.4°F0.2°C 82% 1.5 mph WSW2.4 kmh WSW 4.5 mph7.2 kmh 30.34 in1027.4 mb 0.00 in0.0 mm 0.00 in0.0 mm 0.01 in0.3 mm
09:15 AM 37.4°F3.0°C 32.1°F0.1°C 81% 1.8 mph SW2.9 kmh SW 5.4 mph8.7 kmh 30.35 in1027.8 mb 0.00 in0.0 mm 0.00 in0.0 mm 0.01 in0.3 mm
09:20 AM 37.6°F3.1°C 32.3°F0.2°C 81% 2.0 mph SW3.2 kmh SW 5.4 mph8.7 kmh 30.35 in1027.8 mb 0.00 in0.0 mm 0.00 in0.0 mm 0.01 in0.3 mm
09:25 AM 37.6°F3.1°C 32.3°F0.2°C 81% 1.4 mph WSW2.3 kmh WSW 5.4 mph8.7 kmh 30.35 in1027.8 mb 0.00 in0.0 mm 0.00 in0.0 mm 0.01 in0.3 mm
09:30 AM 37.6°F3.1°C 32.3°F0.2°C 81% 1.0 mph SW1.6 kmh SW 3.8 mph6.1 kmh 30.35 in1027.8 mb 0.00 in0.0 mm 0.00 in0.0 mm 0.01 in0.3 mm
09:35 AM 37.6°F3.1°C 32.3°F0.2°C 81% 1.0 mph SW1.6 kmh SW 3.8 mph6.1 kmh 30.35 in1027.8 mb 0.00 in0.0 mm 0.00 in0.0 mm 0.01 in0.3 mm
09:40 AM 37.8°F3.2°C 32.5°F0.3°C 81% 0.9 mph WSW1.4 kmh WSW 4.5 mph7.2 kmh 30.35 in1027.8 mb 0.00 in0.0 mm 0.00 in0.0 mm 0.01 in0.3 mm
09:45 AM 37.9°F3.3°C 32.6°F0.3°C 81% 1.2 mph WSW1.9 kmh WSW 5.4 mph8.7 kmh 30.35 in1027.8 mb 0.00 in0.0 mm 0.00 in0.0 mm 0.01 in0.3 mm
09:50 AM 37.9°F3.3°C 32.6°F0.3°C 81% 1.6 mph WSW2.6 kmh WSW 5.4 mph8.7 kmh 30.35 in1027.8 mb 0.00 in0.0 mm 0.00 in0.0 mm 0.01 in0.3 mm
09:55 AM 38.1°F3.4°C 32.8°F0.4°C 81% 1.5 mph SW2.4 kmh SW 4.5 mph7.2 kmh 30.35 in1027.8 mb 0.00 in0.0 mm 0.00 in0.0 mm 0.01 in0.3 mm
10:00 AM 37.9°F3.3°C 32.6°F0.3°C 81% 1.2 mph SW1.9 kmh SW 4.5 mph7.2 kmh 30.35 in1027.8 mb 0.00 in0.0 mm 0.00 in0.0 mm 0.01 in0.3 mm
10:05 AM 38.1°F3.4°C 32.8°F0.4°C 81% 1.0 mph WSW1.6 kmh WSW 4.5 mph7.2 kmh 30.35 in1027.8 mb 0.00 in0.0 mm 0.00 in0.0 mm 0.01 in0.3 mm
10:10 AM 38.1°F3.4°C 32.8°F0.4°C 81% 1.1 mph WSW1.8 kmh WSW 4.5 mph7.2 kmh 30.35 in1027.8 mb 0.00 in0.0 mm 0.00 in0.0 mm 0.01 in0.3 mm
10:15 AM 38.3°F3.5°C 33.0°F0.6°C 81% 1.4 mph WSW2.3 kmh WSW 3.8 mph6.1 kmh 30.35 in1027.8 mb 0.00 in0.0 mm 0.00 in0.0 mm 0.01 in0.3 mm
10:20 AM 38.3°F3.5°C 33.0°F0.6°C 81% 1.5 mph WSW2.4 kmh WSW 4.5 mph7.2 kmh 30.35 in1027.8 mb 0.00 in0.0 mm 0.00 in0.0 mm 0.01 in0.3 mm
10:25 AM 38.5°F3.6°C 33.2°F0.7°C 81% 1.4 mph WSW2.3 kmh WSW 4.5 mph7.2 kmh 30.35 in1027.8 mb 0.00 in0.0 mm 0.00 in0.0 mm 0.01 in0.3 mm
10:30 AM 38.5°F3.6°C 33.2°F0.7°C 81% 1.5 mph WSW2.4 kmh WSW 4.5 mph7.2 kmh 30.35 in1027.8 mb 0.00 in0.0 mm 0.00 in0.0 mm 0.01 in0.3 mm
10:35 AM 38.8°F3.8°C 33.5°F0.8°C 81% 1.5 mph WSW2.4 kmh WSW 4.5 mph7.2 kmh 30.35 in1027.8 mb 0.00 in0.0 mm 0.00 in0.0 mm 0.01 in0.3 mm
10:40 AM 39.0°F3.9°C 33.4°F0.8°C 80% 1.6 mph WSW2.6 kmh WSW 4.5 mph7.2 kmh 30.35 in1027.8 mb 0.00 in0.0 mm 0.00 in0.0 mm 0.01 in0.3 mm
10:45 AM 39.4°F4.1°C 33.7°F0.9°C 80% 1.8 mph SW2.9 kmh SW 4.5 mph7.2 kmh 30.35 in1027.8 mb 0.00 in0.0 mm 0.00 in0.0 mm 0.01 in0.3 mm
10:50 AM 39.6°F4.2°C 33.9°F1.1°C 80% 1.7 mph SW2.7 kmh SW 6.0 mph9.7 kmh 30.35 in1027.8 mb 0.00 in0.0 mm 0.00 in0.0 mm 0.01 in0.3 mm
10:55 AM 39.9°F4.4°C 34.3°F1.3°C 80% 1.9 mph WSW3.1 kmh WSW 6.9 mph11.1 kmh 30.34 in1027.4 mb 0.00 in0.0 mm 0.00 in0.0 mm 0.01 in0.3 mm
11:00 AM 40.3°F4.6°C 34.3°F1.3°C 79% 2.0 mph W3.2 kmh W 6.9 mph11.1 kmh 30.34 in1027.4 mb 0.00 in0.0 mm 0.00 in0.0 mm 0.01 in0.3 mm
11:05 AM 40.5°F4.7°C 34.2°F1.2°C 78% 2.1 mph WSW3.4 kmh WSW 6.9 mph11.1 kmh 30.33 in1027.1 mb 0.00 in0.0 mm 0.00 in0.0 mm 0.01 in0.3 mm
11:10 AM 40.8°F4.9°C 34.5°F1.4°C 78% 2.2 mph W3.5 kmh W 7.6 mph12.2 kmh 30.34 in1027.4 mb 0.00 in0.0 mm 0.00 in0.0 mm 0.01 in0.3 mm
11:15 AM 41.4°F5.2°C 35.0°F1.7°C 78% 1.8 mph W2.9 kmh W 7.6 mph12.2 kmh 30.34 in1027.4 mb 0.00 in0.0 mm 0.00 in0.0 mm 0.01 in0.3 mm
11:20 AM 41.7°F5.4°C 35.1°F1.7°C 77% 1.9 mph WSW3.1 kmh WSW 6.9 mph11.1 kmh 30.34 in1027.4 mb 0.00 in0.0 mm 0.00 in0.0 mm 0.01 in0.3 mm
11:25 AM 42.1°F5.6°C 35.1°F1.7°C 76% 2.1 mph W3.4 kmh W 6.9 mph11.1 kmh 30.34 in1027.4 mb 0.00 in0.0 mm 0.00 in0.0 mm 0.01 in0.3 mm
11:30 AM 42.6°F5.9°C 35.3°F1.8°C 75% 2.0 mph W3.2 kmh W 7.6 mph12.2 kmh 30.34 in1027.4 mb 0.00 in0.0 mm 0.00 in0.0 mm 0.01 in0.3 mm
11:35 AM 43.3°F6.3°C 36.0°F2.2°C 75% 2.3 mph W3.7 kmh W 7.6 mph12.2 kmh 30.34 in1027.4 mb 0.00 in0.0 mm 0.00 in0.0 mm 0.01 in0.3 mm
11:40 AM 43.9°F6.6°C 35.4°F1.9°C 72% 2.8 mph WSW4.5 kmh WSW 8.3 mph13.4 kmh 30.34 in1027.4 mb 0.00 in0.0 mm 0.00 in0.0 mm 0.01 in0.3 mm
11:45 AM 44.4°F6.9°C 36.0°F2.2°C 72% 3.2 mph WSW5.1 kmh WSW 8.3 mph13.4 kmh 30.34 in1027.4 mb 0.00 in0.0 mm 0.00 in0.0 mm 0.01 in0.3 mm
11:50 AM 45.1°F7.3°C 36.3°F2.4°C 71% 2.7 mph WSW4.3 kmh WSW 8.3 mph13.4 kmh 30.34 in1027.4 mb 0.00 in0.0 mm 0.00 in0.0 mm 0.01 in0.3 mm
11:55 AM 44.8°F7.1°C 36.0°F2.2°C 71% 2.5 mph WSW4.0 kmh WSW 8.3 mph13.4 kmh 30.34 in1027.4 mb 0.00 in0.0 mm 0.00 in0.0 mm 0.01 in0.3 mm
12:00 PM 44.8°F7.1°C 36.3°F2.4°C 72% 2.8 mph W4.5 kmh W 8.3 mph13.4 kmh 30.33 in1027.1 mb 0.00 in0.0 mm 0.00 in0.0 mm 0.01 in0.3 mm
12:05 PM 44.4°F6.9°C 35.6°F2.0°C 71% 3.0 mph W4.8 kmh W 8.3 mph13.4 kmh 30.33 in1027.1 mb 0.00 in0.0 mm 0.00 in0.0 mm 0.01 in0.3 mm
12:10 PM 44.1°F6.7°C 35.3°F1.8°C 71% 2.9 mph WSW4.7 kmh WSW 8.3 mph13.4 kmh 30.33 in1027.1 mb 0.00 in0.0 mm 0.00 in0.0 mm 0.01 in0.3 mm
12:15 PM 43.9°F6.6°C 35.1°F1.7°C 71% 2.5 mph W4.0 kmh W 8.3 mph13.4 kmh 30.32 in1026.8 mb 0.00 in0.0 mm 0.00 in0.0 mm 0.01 in0.3 mm
12:20 PM 43.7°F6.5°C 35.3°F1.8°C 72% 2.6 mph W4.2 kmh W 7.6 mph12.2 kmh 30.32 in1026.8 mb 0.00 in0.0 mm 0.00 in0.0 mm 0.01 in0.3 mm
12:25 PM 43.7°F6.5°C 35.3°F1.8°C 72% 2.6 mph WSW4.2 kmh WSW 7.6 mph12.2 kmh 30.32 in1026.8 mb 0.00 in0.0 mm 0.00 in0.0 mm 0.01 in0.3 mm
12:30 PM 43.3°F6.3°C 34.6°F1.4°C 71% 3.1 mph SW5.0 kmh SW 10.7 mph17.2 kmh 30.31 in1026.4 mb 0.00 in0.0 mm 0.00 in0.0 mm 0.01 in0.3 mm
12:35 PM 43.3°F6.3°C 34.6°F1.4°C 71% 3.7 mph SW6.0 kmh SW 10.7 mph17.2 kmh 30.31 in1026.4 mb 0.00 in0.0 mm 0.00 in0.0 mm 0.01 in0.3 mm
12:40 PM 43.5°F6.4°C 35.1°F1.7°C 72% 3.2 mph WSW5.1 kmh WSW 10.7 mph17.2 kmh 30.30 in1026.1 mb 0.00 in0.0 mm 0.00 in0.0 mm 0.01 in0.3 mm
12:45 PM 43.7°F6.5°C 35.3°F1.8°C 72% 2.9 mph W4.7 kmh W 9.2 mph14.8 kmh 30.30 in1026.1 mb 0.00 in0.0 mm 0.00 in0.0 mm 0.01 in0.3 mm
12:50 PM 43.9°F6.6°C 35.4°F1.9°C 72% 2.9 mph WSW4.7 kmh WSW 8.3 mph13.4 kmh 30.30 in1026.1 mb 0.00 in0.0 mm 0.00 in0.0 mm 0.01 in0.3 mm
12:55 PM 43.9°F6.6°C 35.4°F1.9°C 72% 2.8 mph W4.5 kmh W 8.3 mph13.4 kmh 30.29 in1025.7 mb 0.00 in0.0 mm 0.00 in0.0 mm 0.01 in0.3 mm
01:00 PM 44.1°F6.7°C 36.0°F2.2°C 73% 2.5 mph WNW4.0 kmh WNW 7.6 mph12.2 kmh 30.29 in1025.7 mb 0.00 in0.0 mm 0.00 in0.0 mm 0.01 in0.3 mm
01:05 PM 44.1°F6.7°C 35.6°F2.0°C 72% 2.1 mph W3.4 kmh W 6.9 mph11.1 kmh 30.29 in1025.7 mb 0.00 in0.0 mm 0.00 in0.0 mm 0.01 in0.3 mm
01:10 PM 44.1°F6.7°C 35.6°F2.0°C 72% 2.1 mph W3.4 kmh W 6.9 mph11.1 kmh 30.29 in1025.7 mb 0.00 in0.0 mm 0.00 in0.0 mm 0.01 in0.3 mm
01:15 PM 44.2°F6.8°C 35.8°F2.1°C 72% 1.9 mph WSW3.1 kmh WSW 6.9 mph11.1 kmh 30.28 in1025.4 mb 0.00 in0.0 mm 0.00 in0.0 mm 0.01 in0.3 mm
01:20 PM 44.2°F6.8°C 35.8°F2.1°C 72% 1.9 mph WSW3.1 kmh WSW 6.9 mph11.1 kmh 30.28 in1025.4 mb 0.00 in0.0 mm 0.00 in0.0 mm 0.01 in0.3 mm
01:25 PM 44.2°F6.8°C 35.4°F1.9°C 71% 2.2 mph WSW3.5 kmh WSW 7.6 mph12.2 kmh 30.28 in1025.4 mb 0.00 in0.0 mm 0.00 in0.0 mm 0.01 in0.3 mm
01:30 PM 44.6°F7.0°C 36.1°F2.3°C 72% 1.7 mph WSW2.7 kmh WSW 7.6 mph12.2 kmh 30.28 in1025.4 mb 0.00 in0.0 mm 0.00 in0.0 mm 0.01 in0.3 mm
01:35 PM 44.8°F7.1°C 36.0°F2.2°C 71% 1.7 mph WSW2.7 kmh WSW 6.0 mph9.7 kmh 30.27 in1025.1 mb 0.00 in0.0 mm 0.00 in0.0 mm 0.01 in0.3 mm
01:40 PM 44.8°F7.1°C 35.6°F2.0°C 70% 2.2 mph WSW3.5 kmh WSW 6.9 mph11.1 kmh 30.27 in1025.1 mb 0.00 in0.0 mm 0.00 in0.0 mm 0.01 in0.3 mm
01:45 PM 44.8°F7.1°C 35.2°F1.8°C 69% 2.7 mph WSW4.3 kmh WSW 9.2 mph14.8 kmh 30.27 in1025.1 mb 0.00 in0.0 mm 0.00 in0.0 mm 0.01 in0.3 mm
01:50 PM 44.8°F7.1°C 35.2°F1.8°C 69% 2.9 mph WNW4.7 kmh WNW 9.2 mph14.8 kmh 30.27 in1025.1 mb 0.00 in0.0 mm 0.00 in0.0 mm 0.01 in0.3 mm
01:55 PM 44.6°F7.0°C 35.1°F1.7°C 69% 3.2 mph WSW5.1 kmh WSW 8.3 mph13.4 kmh 30.27 in1025.1 mb 0.00 in0.0 mm 0.00 in0.0 mm 0.01 in0.3 mm
02:00 PM 44.4°F6.9°C 34.9°F1.6°C 69% 3.7 mph WSW6.0 kmh WSW 8.3 mph13.4 kmh 30.28 in1025.4 mb 0.00 in0.0 mm 0.00 in0.0 mm 0.01 in0.3 mm
02:05 PM 44.4°F6.9°C 34.9°F1.6°C 69% 3.0 mph SW4.8 kmh SW 8.3 mph13.4 kmh 30.28 in1025.4 mb 0.00 in0.0 mm 0.00 in0.0 mm 0.01 in0.3 mm
02:10 PM 44.4°F6.9°C 34.9°F1.6°C 69% 2.7 mph SW4.3 kmh SW 8.3 mph13.4 kmh 30.29 in1025.7 mb 0.00 in0.0 mm 0.00 in0.0 mm 0.01 in0.3 mm
02:15 PM 44.6°F7.0°C 35.4°F1.9°C 70% 2.5 mph WSW4.0 kmh WSW 8.3 mph13.4 kmh 30.29 in1025.7 mb 0.00 in0.0 mm 0.00 in0.0 mm 0.01 in0.3 mm
02:20 PM 44.6°F7.0°C 35.4°F1.9°C 70% 2.0 mph WSW3.2 kmh WSW 5.4 mph8.7 kmh 30.29 in1025.7 mb 0.00 in0.0 mm 0.00 in0.0 mm 0.01 in0.3 mm
02:25 PM 44.6°F7.0°C 35.1°F1.7°C 69% 2.0 mph WSW3.2 kmh WSW 5.4 mph8.7 kmh 30.30 in1026.1 mb 0.00 in0.0 mm 0.00 in0.0 mm 0.01 in0.3 mm
02:30 PM 44.6°F7.0°C 35.4°F1.9°C 70% 1.7 mph W2.7 kmh W 4.5 mph7.2 kmh 30.29 in1025.7 mb 0.00 in0.0 mm 0.00 in0.0 mm 0.01 in0.3 mm
02:35 PM 44.6°F7.0°C 35.4°F1.9°C 70% 1.5 mph W2.4 kmh W 5.4 mph8.7 kmh 30.30 in1026.1 mb 0.00 in0.0 mm 0.00 in0.0 mm 0.01 in0.3 mm
02:40 PM 44.4°F6.9°C 35.3°F1.8°C 70% 1.5 mph W2.4 kmh W 6.0 mph9.7 kmh 30.29 in1025.7 mb 0.00 in0.0 mm 0.00 in0.0 mm 0.01 in0.3 mm
02:45 PM 44.4°F6.9°C 34.9°F1.6°C 69% 1.4 mph WNW2.3 kmh WNW 6.0 mph9.7 kmh 30.29 in1025.7 mb 0.00 in0.0 mm 0.00 in0.0 mm 0.01 in0.3 mm
02:50 PM 44.4°F6.9°C 34.9°F1.6°C 69% 1.6 mph W2.6 kmh W 4.5 mph7.2 kmh 30.29 in1025.7 mb 0.00 in0.0 mm 0.00 in0.0 mm 0.01 in0.3 mm
02:55 PM 44.4°F6.9°C 35.3°F1.8°C 70% 1.9 mph WSW3.1 kmh WSW 6.9 mph11.1 kmh 30.29 in1025.7 mb 0.00 in0.0 mm 0.00 in0.0 mm 0.01 in0.3 mm
03:00 PM 44.4°F6.9°C 34.9°F1.6°C 69% 1.7 mph W2.7 kmh W 6.9 mph11.1 kmh 30.29 in1025.7 mb 0.00 in0.0 mm 0.00 in0.0 mm 0.01 in0.3 mm
03:05 PM 44.6°F7.0°C 35.1°F1.7°C 69% 1.7 mph WSW2.7 kmh WSW 6.0 mph9.7 kmh 30.28 in1025.4 mb 0.00 in0.0 mm 0.00 in0.0 mm 0.01 in0.3 mm
03:10 PM 44.6°F7.0°C 35.1°F1.7°C 69% 2.0 mph WSW3.2 kmh WSW 6.0 mph9.7 kmh 30.28 in1025.4 mb 0.00 in0.0 mm 0.00 in0.0 mm 0.01 in0.3 mm
03:15 PM 44.6°F7.0°C 34.7°F1.5°C 68% 1.9 mph W3.1 kmh W 6.0 mph9.7 kmh 30.28 in1025.4 mb 0.00 in0.0 mm 0.00 in0.0 mm 0.01 in0.3 mm
03:20 PM 44.6°F7.0°C 34.3°F1.3°C 67% 1.9 mph W3.1 kmh W 6.0 mph9.7 kmh 30.28 in1025.4 mb 0.00 in0.0 mm 0.00 in0.0 mm 0.01 in0.3 mm
03:25 PM 44.6°F7.0°C 34.3°F1.3°C 67% 2.2 mph W3.5 kmh W 6.9 mph11.1 kmh 30.28 in1025.4 mb 0.00 in0.0 mm 0.00 in0.0 mm 0.01 in0.3 mm
03:30 PM 44.6°F7.0°C 34.3°F1.3°C 67% 2.1 mph WSW3.4 kmh WSW 6.9 mph11.1 kmh 30.29 in1025.7 mb 0.00 in0.0 mm 0.00 in0.0 mm 0.01 in0.3 mm
03:35 PM 44.8°F7.1°C 34.5°F1.4°C 67% 1.7 mph WSW2.7 kmh WSW 5.4 mph8.7 kmh 30.29 in1025.7 mb 0.00 in0.0 mm 0.00 in0.0 mm 0.01 in0.3 mm
03:40 PM 44.6°F7.0°C 34.3°F1.3°C 67% 1.7 mph SW2.7 kmh SW 5.4 mph8.7 kmh 30.29 in1025.7 mb 0.00 in0.0 mm 0.00 in0.0 mm 0.01 in0.3 mm
03:45 PM 44.8°F7.1°C 34.9°F1.6°C 68% 1.7 mph WSW2.7 kmh WSW 6.0 mph9.7 kmh 30.29 in1025.7 mb 0.00 in0.0 mm 0.00 in0.0 mm 0.01 in0.3 mm
03:50 PM 45.1°F7.3°C 34.8°F1.6°C 67% 1.1 mph WSW1.8 kmh WSW 6.0 mph9.7 kmh 30.29 in1025.7 mb 0.00 in0.0 mm 0.00 in0.0 mm 0.01 in0.3 mm
03:55 PM 45.3°F7.4°C 34.3°F1.3°C 65% 1.1 mph SW1.8 kmh SW 6.0 mph9.7 kmh 30.29 in1025.7 mb 0.00 in0.0 mm 0.00 in0.0 mm 0.01 in0.3 mm
04:00 PM 45.9°F7.7°C 35.2°F1.8°C 66% 1.2 mph SW1.9 kmh SW 6.0 mph9.7 kmh 30.28 in1025.4 mb 0.00 in0.0 mm 0.00 in0.0 mm 0.01 in0.3 mm
04:05 PM 46.0°F7.8°C 34.9°F1.6°C 65% 1.2 mph WSW1.9 kmh WSW 6.0 mph9.7 kmh 30.28 in1025.4 mb 0.00 in0.0 mm 0.00 in0.0 mm 0.01 in0.3 mm
04:10 PM 46.0°F7.8°C 34.6°F1.4°C 64% 1.6 mph WSW2.6 kmh WSW 6.0 mph9.7 kmh 30.28 in1025.4 mb 0.00 in0.0 mm 0.00 in0.0 mm 0.01 in0.3 mm
04:15 PM 45.5°F7.5°C 34.0°F1.1°C 64% 1.9 mph WSW3.1 kmh WSW 5.4 mph8.7 kmh 30.28 in1025.4 mb 0.00 in0.0 mm 0.00 in0.0 mm 0.01 in0.3 mm
04:20 PM 45.3°F7.4°C 33.9°F1.1°C 64% 2.2 mph W3.5 kmh W 6.0 mph9.7 kmh 30.28 in1025.4 mb 0.00 in0.0 mm 0.00 in0.0 mm 0.01 in0.3 mm
04:25 PM 45.1°F7.3°C 34.1°F1.2°C 65% 2.3 mph W3.7 kmh W 6.0 mph9.7 kmh 30.27 in1025.1 mb 0.00 in0.0 mm 0.00 in0.0 mm 0.01 in0.3 mm
04:30 PM 44.8°F7.1°C 34.1°F1.2°C 66% 2.1 mph WSW3.4 kmh WSW 6.0 mph9.7 kmh 30.27 in1025.1 mb 0.00 in0.0 mm 0.00 in0.0 mm 0.01 in0.3 mm
04:35 PM 44.6°F7.0°C 34.0°F1.1°C 66% 2.2 mph WSW3.5 kmh WSW 6.0 mph9.7 kmh 30.27 in1025.1 mb 0.00 in0.0 mm 0.00 in0.0 mm 0.01 in0.3 mm
04:40 PM 44.4°F6.9°C 33.8°F1.0°C 66% 2.9 mph WSW4.7 kmh WSW 6.9 mph11.1 kmh 30.27 in1025.1 mb 0.00 in0.0 mm 0.00 in0.0 mm 0.01 in0.3 mm
04:45 PM 44.2°F6.8°C 34.0°F1.1°C 67% 2.2 mph WSW3.5 kmh WSW 6.9 mph11.1 kmh 30.27 in1025.1 mb 0.00 in0.0 mm 0.00 in0.0 mm 0.01 in0.3 mm
04:50 PM 44.1°F6.7°C 34.2°F1.2°C 68% 1.4 mph WSW2.3 kmh WSW 5.4 mph8.7 kmh 30.27 in1025.1 mb 0.00 in0.0 mm 0.00 in0.0 mm 0.01 in0.3 mm
04:55 PM 43.9°F6.6°C 34.0°F1.1°C 68% 1.7 mph SW2.7 kmh SW 5.4 mph8.7 kmh 30.27 in1025.1 mb 0.00 in0.0 mm 0.00 in0.0 mm 0.01 in0.3 mm
05:00 PM 43.5°F6.4°C 34.4°F1.3°C 70% 1.3 mph SW2.1 kmh SW 4.5 mph7.2 kmh 30.27 in1025.1 mb 0.00 in0.0 mm 0.00 in0.0 mm 0.01 in0.3 mm
05:05 PM 43.0°F6.1°C 34.2°F1.2°C 71% 1.1 mph SW1.8 kmh SW 3.8 mph6.1 kmh 30.27 in1025.1 mb 0.00 in0.0 mm 0.00 in0.0 mm 0.01 in0.3 mm
05:10 PM 42.8°F6.0°C 34.4°F1.3°C 72% 1.3 mph SW2.1 kmh SW 3.8 mph6.1 kmh 30.26 in1024.7 mb 0.00 in0.0 mm 0.00 in0.0 mm 0.01 in0.3 mm
05:15 PM 42.4°F5.8°C 34.1°F1.2°C 72% 1.4 mph SW2.3 kmh SW 4.5 mph7.2 kmh 30.26 in1024.7 mb 0.00 in0.0 mm 0.00 in0.0 mm 0.01 in0.3 mm
05:20 PM 42.1°F5.6°C 34.1°F1.2°C 73% 1.4 mph SW2.3 kmh SW 4.5 mph7.2 kmh 30.26 in1024.7 mb 0.00 in0.0 mm 0.00 in0.0 mm 0.01 in0.3 mm
05:25 PM 41.7°F5.4°C 34.1°F1.2°C 74% 1.2 mph SW1.9 kmh SW 3.8 mph6.1 kmh 30.25 in1024.4 mb 0.00 in0.0 mm 0.00 in0.0 mm 0.01 in0.3 mm
05:30 PM 41.5°F5.3°C 33.9°F1.1°C 74% 0.7 mph SW1.1 kmh SW 3.8 mph6.1 kmh 30.25 in1024.4 mb 0.00 in0.0 mm 0.00 in0.0 mm 0.01 in0.3 mm
05:35 PM 41.4°F5.2°C 34.0°F1.1°C 75% 0.7 mph SW1.1 kmh SW 3.8 mph6.1 kmh 30.25 in1024.4 mb 0.00 in0.0 mm 0.00 in0.0 mm 0.01 in0.3 mm
05:40 PM 41.0°F5.0°C 34.4°F1.3°C 77% 1.4 mph SW2.3 kmh SW 3.8 mph6.1 kmh 30.25 in1024.4 mb 0.00 in0.0 mm 0.00 in0.0 mm 0.01 in0.3 mm
05:45 PM 40.6°F4.8°C 34.3°F1.3°C 78% 1.6 mph SW2.6 kmh SW 3.8 mph6.1 kmh 30.25 in1024.4 mb 0.00 in0.0 mm 0.00 in0.0 mm 0.01 in0.3 mm
05:50 PM 40.3°F4.6°C 34.3°F1.3°C 79% 1.7 mph SW2.7 kmh SW 3.8 mph6.1 kmh 30.25 in1024.4 mb 0.00 in0.0 mm 0.00 in0.0 mm 0.01 in0.3 mm
05:55 PM 39.9°F4.4°C 34.3°F1.3°C 80% 2.0 mph SW3.2 kmh SW 3.8 mph6.1 kmh 30.25 in1024.4 mb 0.00 in0.0 mm 0.00 in0.0 mm 0.01 in0.3 mm
06:00 PM 39.6°F4.2°C 34.2°F1.2°C 81% 1.7 mph SW2.7 kmh SW 3.8 mph6.1 kmh 30.26 in1024.7 mb 0.00 in0.0 mm 0.00 in0.0 mm 0.01 in0.3 mm
06:05 PM 39.2°F4.0°C 34.2°F1.2°C 82% 1.3 mph SW2.1 kmh SW 3.8 mph6.1 kmh 30.26 in1024.7 mb 0.00 in0.0 mm 0.00 in0.0 mm 0.01 in0.3 mm
06:10 PM 38.8°F3.8°C 33.8°F1.0°C 82% 1.3 mph SW2.1 kmh SW 3.8 mph6.1 kmh 30.27 in1025.1 mb 0.00 in0.0 mm 0.00 in0.0 mm 0.01 in0.3 mm
06:15 PM 38.7°F3.7°C 34.0°F1.1°C 83% 1.0 mph SSW1.6 kmh SSW 3.1 mph5.0 kmh 30.27 in1025.1 mb 0.00 in0.0 mm 0.00 in0.0 mm 0.01 in0.3 mm
06:20 PM 38.5°F3.6°C 34.1°F1.2°C 84% 0.8 mph SSW1.3 kmh SSW 3.1 mph5.0 kmh 30.27 in1025.1 mb 0.00 in0.0 mm 0.00 in0.0 mm 0.01 in0.3 mm
06:25 PM 38.3°F3.5°C 33.9°F1.1°C 84% 0.7 mph SW1.1 kmh SW 3.1 mph5.0 kmh 30.27 in1025.1 mb 0.00 in0.0 mm 0.00 in0.0 mm 0.01 in0.3 mm
06:30 PM 38.1°F3.4°C 33.7°F0.9°C 84% 0.3 mph SSW0.5 kmh SSW 1.6 mph2.6 kmh 30.27 in1025.1 mb 0.00 in0.0 mm 0.00 in0.0 mm 0.01 in0.3 mm
06:35 PM 37.9°F3.3°C 33.8°F1.0°C 85% 0.2 mph SSW0.3 kmh SSW 1.6 mph2.6 kmh 30.27 in1025.1 mb 0.00 in0.0 mm 0.00 in0.0 mm 0.01 in0.3 mm
06:40 PM 37.8°F3.2°C 33.7°F0.9°C 85% 0.4 mph WSW0.6 kmh WSW 3.8 mph6.1 kmh 30.27 in1025.1 mb 0.00 in0.0 mm 0.00 in0.0 mm 0.01 in0.3 mm
06:45 PM 37.6°F3.1°C 33.5°F0.8°C 85% 0.5 mph WSW0.8 kmh WSW 3.8 mph6.1 kmh 30.27 in1025.1 mb 0.00 in0.0 mm 0.00 in0.0 mm 0.01 in0.3 mm
06:50 PM 37.4°F3.0°C 33.6°F0.9°C 86% 0.4 mph WSW0.6 kmh WSW 3.1 mph5.0 kmh 30.27 in1025.1 mb 0.00 in0.0 mm 0.00 in0.0 mm 0.01 in0.3 mm
06:55 PM 37.2°F2.9°C 33.4°F0.8°C 86% 0.4 mph WSW0.6 kmh WSW 3.1 mph5.0 kmh 30.27 in1025.1 mb 0.00 in0.0 mm 0.00 in0.0 mm 0.01 in0.3 mm
07:00 PM 37.0°F2.8°C 33.3°F0.7°C 86% 0.7 mph WSW1.1 kmh WSW 3.1 mph5.0 kmh 30.27 in1025.1 mb 0.00 in0.0 mm 0.00 in0.0 mm 0.01 in0.3 mm
07:05 PM 36.9°F2.7°C 33.4°F0.8°C 87% 0.9 mph WSW1.4 kmh WSW 3.1 mph5.0 kmh 30.27 in1025.1 mb 0.00 in0.0 mm 0.00 in0.0 mm 0.01 in0.3 mm
07:10 PM 36.9°F2.7°C 33.4°F0.8°C 87% 0.6 mph SW1.0 kmh SW 3.1 mph5.0 kmh 30.27 in1025.1 mb 0.00 in0.0 mm 0.00 in0.0 mm 0.01 in0.3 mm
07:15 PM 36.9°F2.7°C 33.4°F0.8°C 87% 0.8 mph SW1.3 kmh SW 2.2 mph3.5 kmh 30.28 in1025.4 mb 0.00 in0.0 mm 0.00 in0.0 mm 0.01 in0.3 mm
07:20 PM 36.9°F2.7°C 33.4°F0.8°C 87% 1.2 mph WSW1.9 kmh WSW 3.1 mph5.0 kmh 30.29 in1025.7 mb 0.00 in0.0 mm 0.00 in0.0 mm 0.01 in0.3 mm
07:25 PM 36.7°F2.6°C 33.5°F0.8°C 88% 1.1 mph WSW1.8 kmh WSW 3.8 mph6.1 kmh 30.30 in1026.1 mb 0.00 in0.0 mm 0.00 in0.0 mm 0.01 in0.3 mm
07:30 PM 36.7°F2.6°C 33.5°F0.8°C 88% 1.5 mph WSW2.4 kmh WSW 3.8 mph6.1 kmh 30.30 in1026.1 mb 0.00 in0.0 mm 0.00 in0.0 mm 0.01 in0.3 mm
07:35 PM 36.3°F2.4°C 33.1°F0.6°C 88% 1.9 mph WSW3.1 kmh WSW 3.8 mph6.1 kmh 30.31 in1026.4 mb 0.00 in0.0 mm 0.00 in0.0 mm 0.01 in0.3 mm
07:40 PM 36.1°F2.3°C 32.9°F0.5°C 88% 2.0 mph WSW3.2 kmh WSW 4.5 mph7.2 kmh 30.31 in1026.4 mb 0.00 in0.0 mm 0.00 in0.0 mm 0.01 in0.3 mm
07:45 PM 36.0°F2.2°C 32.8°F0.4°C 88% 1.9 mph WSW3.1 kmh WSW 4.5 mph7.2 kmh 30.31 in1026.4 mb 0.00 in0.0 mm 0.00 in0.0 mm 0.01 in0.3 mm
07:50 PM 35.6°F2.0°C 32.4°F0.2°C 88% 1.6 mph SW2.6 kmh SW 4.5 mph7.2 kmh 30.31 in1026.4 mb 0.00 in0.0 mm 0.00 in0.0 mm 0.01 in0.3 mm
07:55 PM 35.2°F1.8°C 32.1°F0.1°C 88% 1.3 mph WSW2.1 kmh WSW 4.5 mph7.2 kmh 30.31 in1026.4 mb 0.00 in0.0 mm 0.00 in0.0 mm 0.01 in0.3 mm
08:00 PM 35.1°F1.7°C 32.2°F0.1°C 89% 1.2 mph WSW1.9 kmh WSW 4.5 mph7.2 kmh 30.31 in1026.4 mb 0.00 in0.0 mm 0.00 in0.0 mm 0.01 in0.3 mm
08:05 PM 35.2°F1.8°C 32.3°F0.2°C 89% 2.1 mph WSW3.4 kmh WSW 6.0 mph9.7 kmh 30.31 in1026.4 mb 0.00 in0.0 mm 0.00 in0.0 mm 0.01 in0.3 mm
08:10 PM 35.4°F1.9°C 32.2°F0.1°C 88% 3.3 mph WSW5.3 kmh WSW 8.3 mph13.4 kmh 30.32 in1026.8 mb 0.00 in0.0 mm 0.00 in0.0 mm 0.01 in0.3 mm
08:15 PM 35.6°F2.0°C 32.1°F0.1°C 87% 3.3 mph WSW5.3 kmh WSW 8.3 mph13.4 kmh 30.32 in1026.8 mb 0.00 in0.0 mm 0.00 in0.0 mm 0.01 in0.3 mm
08:20 PM 35.8°F2.1°C 32.3°F0.2°C 87% 3.1 mph WSW5.0 kmh WSW 6.9 mph11.1 kmh 30.32 in1026.8 mb 0.00 in0.0 mm 0.00 in0.0 mm 0.01 in0.3 mm
08:25 PM 35.8°F2.1°C 32.3°F0.2°C 87% 2.5 mph WSW4.0 kmh WSW 6.9 mph11.1 kmh 30.32 in1026.8 mb 0.00 in0.0 mm 0.00 in0.0 mm 0.01 in0.3 mm
08:30 PM 35.8°F2.1°C 32.0°F0.0°C 86% 1.9 mph WSW3.1 kmh WSW 4.5 mph7.2 kmh 30.31 in1026.4 mb 0.00 in0.0 mm 0.00 in0.0 mm 0.01 in0.3 mm
08:35 PM 35.6°F2.0°C 32.1°F0.1°C 87% 2.2 mph WSW3.5 kmh WSW 6.0 mph9.7 kmh 30.32 in1026.8 mb 0.00 in0.0 mm 0.00 in0.0 mm 0.01 in0.3 mm
08:40 PM 35.2°F1.8°C 31.8°F-0.1°C 87% 2.4 mph WSW3.9 kmh WSW 6.0 mph9.7 kmh 30.32 in1026.8 mb 0.00 in0.0 mm 0.00 in0.0 mm 0.01 in0.3 mm
08:45 PM 35.2°F1.8°C 32.1°F0.1°C 88% 2.7 mph WSW4.3 kmh WSW 6.0 mph9.7 kmh 30.32 in1026.8 mb 0.00 in0.0 mm 0.00 in0.0 mm 0.01 in0.3 mm
08:50 PM 35.2°F1.8°C 32.1°F0.1°C 88% 2.7 mph WSW4.3 kmh WSW 5.4 mph8.7 kmh 30.31 in1026.4 mb 0.00 in0.0 mm 0.00 in0.0 mm 0.01 in0.3 mm
08:55 PM 35.1°F1.7°C 31.9°F-0.1°C 88% 1.7 mph SW2.7 kmh SW 4.5 mph7.2 kmh 30.31 in1026.4 mb 0.00 in0.0 mm 0.00 in0.0 mm 0.01 in0.3 mm
09:00 PM 34.9°F1.6°C 31.7°F-0.2°C 88% 1.0 mph SW1.6 kmh SW 4.5 mph7.2 kmh 30.32 in1026.8 mb 0.00 in0.0 mm 0.00 in0.0 mm 0.01 in0.3 mm
09:05 PM 34.9°F1.6°C 32.0°F0.0°C 89% 0.7 mph SW1.1 kmh SW 3.1 mph5.0 kmh 30.32 in1026.8 mb 0.00 in0.0 mm 0.00 in0.0 mm 0.01 in0.3 mm
09:10 PM 34.7°F1.5°C 31.8°F-0.1°C 89% 0.5 mph SW0.8 kmh SW 2.2 mph3.5 kmh 30.32 in1026.8 mb 0.00 in0.0 mm 0.00 in0.0 mm 0.01 in0.3 mm
09:15 PM 34.5°F1.4°C 31.6°F-0.2°C 89% 0.5 mph SW0.8 kmh SW 2.2 mph3.5 kmh 30.32 in1026.8 mb 0.00 in0.0 mm 0.00 in0.0 mm 0.01 in0.3 mm
09:20 PM 34.2°F1.2°C 31.3°F-0.4°C 89% 0.5 mph SSW0.8 kmh SSW 2.2 mph3.5 kmh 30.32 in1026.8 mb 0.00 in0.0 mm 0.00 in0.0 mm 0.01 in0.3 mm
09:25 PM 34.2°F1.2°C 31.5°F-0.3°C 90% 0.7 mph SSW1.1 kmh SSW 2.2 mph3.5 kmh 30.32 in1026.8 mb 0.00 in0.0 mm 0.00 in0.0 mm 0.01 in0.3 mm
09:30 PM 34.5°F1.4°C 31.9°F-0.1°C 90% 0.9 mph SW1.4 kmh SW 2.2 mph3.5 kmh 30.32 in1026.8 mb 0.00 in0.0 mm 0.00 in0.0 mm 0.01 in0.3 mm
09:35 PM 34.7°F1.5°C 32.1°F0.1°C 90% 0.8 mph SW1.3 kmh SW 2.2 mph3.5 kmh 30.32 in1026.8 mb 0.00 in0.0 mm 0.00 in0.0 mm 0.01 in0.3 mm
09:40 PM 34.5°F1.4°C 31.9°F-0.1°C 90% 0.9 mph SSW1.4 kmh SSW 2.2 mph3.5 kmh 30.31 in1026.4 mb 0.00 in0.0 mm 0.00 in0.0 mm 0.01 in0.3 mm
09:45 PM 34.7°F1.5°C 32.1°F0.1°C 90% 0.8 mph SW1.3 kmh SW 3.1 mph5.0 kmh 30.31 in1026.4 mb 0.00 in0.0 mm 0.00 in0.0 mm 0.01 in0.3 mm
09:50 PM 34.5°F1.4°C 31.9°F-0.1°C 90% 0.5 mph SW0.8 kmh SW 3.8 mph6.1 kmh 30.31 in1026.4 mb 0.00 in0.0 mm 0.00 in0.0 mm 0.01 in0.3 mm
09:55 PM 34.3°F1.3°C 31.4°F-0.3°C 89% 0.8 mph SW1.3 kmh SW 3.8 mph6.1 kmh 30.31 in1026.4 mb 0.00 in0.0 mm 0.00 in0.0 mm 0.01 in0.3 mm
10:00 PM 34.2°F1.2°C 31.3°F-0.4°C 89% 1.4 mph WSW2.3 kmh WSW 3.8 mph6.1 kmh 30.31 in1026.4 mb 0.00 in0.0 mm 0.00 in0.0 mm 0.01 in0.3 mm
10:05 PM 34.0°F1.1°C 31.4°F-0.3°C 90% 1.0 mph SW1.6 kmh SW 3.8 mph6.1 kmh 30.31 in1026.4 mb 0.00 in0.0 mm 0.00 in0.0 mm 0.01 in0.3 mm
10:10 PM 33.6°F0.9°C 31.0°F-0.6°C 90% 0.6 mph SW1.0 kmh SW 2.2 mph3.5 kmh 30.31 in1026.4 mb 0.00 in0.0 mm 0.00 in0.0 mm 0.01 in0.3 mm
10:15 PM 33.4°F0.8°C 31.1°F-0.5°C 91% 0.7 mph WSW1.1 kmh WSW 3.1 mph5.0 kmh 30.31 in1026.4 mb 0.00 in0.0 mm 0.00 in0.0 mm 0.01 in0.3 mm
10:20 PM 33.3°F0.7°C 30.9°F-0.6°C 91% 1.2 mph WSW1.9 kmh WSW 3.8 mph6.1 kmh 30.31 in1026.4 mb 0.00 in0.0 mm 0.00 in0.0 mm 0.01 in0.3 mm
10:25 PM 33.1°F0.6°C 30.8°F-0.7°C 91% 1.5 mph WSW2.4 kmh WSW 3.8 mph6.1 kmh 30.31 in1026.4 mb 0.00 in0.0 mm 0.00 in0.0 mm 0.01 in0.3 mm
10:30 PM 32.9°F0.5°C 30.8°F-0.7°C 92% 1.5 mph WSW2.4 kmh WSW 3.8 mph6.1 kmh 30.30 in1026.1 mb 0.00 in0.0 mm 0.00 in0.0 mm 0.01 in0.3 mm
10:35 PM 32.9°F0.5°C 30.8°F-0.7°C 92% 1.5 mph SW2.4 kmh SW 3.8 mph6.1 kmh 30.30 in1026.1 mb 0.00 in0.0 mm 0.00 in0.0 mm 0.01 in0.3 mm
10:40 PM 32.7°F0.4°C 30.7°F-0.7°C 92% 0.7 mph SW1.1 kmh SW 3.8 mph6.1 kmh 30.30 in1026.1 mb 0.00 in0.0 mm 0.00 in0.0 mm 0.01 in0.3 mm
10:45 PM 32.7°F0.4°C 30.7°F-0.7°C 92% 0.1 mph SW0.2 kmh SW 3.1 mph5.0 kmh 30.30 in1026.1 mb 0.00 in0.0 mm 0.00 in0.0 mm 0.01 in0.3 mm
10:50 PM 32.7°F0.4°C 30.7°F-0.7°C 92% 0.3 mph SW0.5 kmh SW 2.2 mph3.5 kmh 30.30 in1026.1 mb 0.00 in0.0 mm 0.00 in0.0 mm 0.01 in0.3 mm
10:55 PM 32.7°F0.4°C 30.9°F-0.6°C 93% 0.4 mph SW0.6 kmh SW 2.2 mph3.5 kmh 30.30 in1026.1 mb 0.00 in0.0 mm 0.00 in0.0 mm 0.01 in0.3 mm
11:00 PM 32.7°F0.4°C 30.7°F-0.7°C 92% 0.4 mph SW0.6 kmh SW 3.1 mph5.0 kmh 30.31 in1026.4 mb 0.00 in0.0 mm 0.00 in0.0 mm 0.01 in0.3 mm
11:05 PM 32.5°F0.3°C 30.5°F-0.8°C 92% 0.9 mph SW1.4 kmh SW 3.8 mph6.1 kmh 30.31 in1026.4 mb 0.00 in0.0 mm 0.00 in0.0 mm 0.01 in0.3 mm
11:10 PM 32.5°F0.3°C 30.8°F-0.7°C 93% 1.4 mph SW2.3 kmh SW 3.8 mph6.1 kmh 30.31 in1026.4 mb 0.00 in0.0 mm 0.00 in0.0 mm 0.01 in0.3 mm
11:15 PM 32.4°F0.2°C 30.6°F-0.8°C 93% 1.9 mph SW3.1 kmh SW 4.5 mph7.2 kmh 30.31 in1026.4 mb 0.00 in0.0 mm 0.00 in0.0 mm 0.01 in0.3 mm
11:20 PM 32.4°F0.2°C 30.6°F-0.8°C 93% 2.0 mph SW3.2 kmh SW 4.5 mph7.2 kmh 30.31 in1026.4 mb 0.00 in0.0 mm 0.00 in0.0 mm 0.01 in0.3 mm
11:25 PM 32.2°F0.1°C 30.4°F-0.9°C 93% 1.2 mph SW1.9 kmh SW 4.5 mph7.2 kmh 30.31 in1026.4 mb 0.00 in0.0 mm 0.00 in0.0 mm 0.01 in0.3 mm
11:30 PM 31.8°F-0.1°C 30.0°F-1.1°C 93% 0.8 mph SW1.3 kmh SW 3.1 mph5.0 kmh 30.30 in1026.1 mb 0.00 in0.0 mm 0.00 in0.0 mm 0.01 in0.3 mm
11:35 PM 31.8°F-0.1°C 30.0°F-1.1°C 93% 0.7 mph WSW1.1 kmh WSW 3.1 mph5.0 kmh 30.30 in1026.1 mb 0.00 in0.0 mm 0.00 in0.0 mm 0.01 in0.3 mm
11:40 PM 32.0°F0.0°C 30.2°F-1.0°C 93% 0.4 mph WSW0.6 kmh WSW 3.8 mph6.1 kmh 30.30 in1026.1 mb 0.00 in0.0 mm 0.00 in0.0 mm 0.01 in0.3 mm
11:45 PM 32.2°F0.1°C 30.7°F-0.7°C 94% 0.6 mph WSW1.0 kmh WSW 3.8 mph6.1 kmh 30.30 in1026.1 mb 0.00 in0.0 mm 0.00 in0.0 mm 0.01 in0.3 mm
11:50 PM 32.2°F0.1°C 30.7°F-0.7°C 94% 0.8 mph WSW1.3 kmh WSW 3.8 mph6.1 kmh 30.31 in1026.4 mb 0.00 in0.0 mm 0.00 in0.0 mm 0.01 in0.3 mm
11:55 PM 31.6°F-0.2°C 30.1°F-1.1°C 94% 1.4 mph WSW2.3 kmh WSW 3.8 mph6.1 kmh 30.30 in1026.1 mb 0.00 in0.0 mm 0.00 in0.0 mm 0.01 in0.3 mm